createdAt,value
2023-05-16T00:01:36.397Z,91.07
2023-05-16T00:04:04.682Z,91.11
2023-05-16T00:06:33.568Z,91.11
2023-05-16T00:09:01.723Z,91.16
2023-05-16T00:11:30.909Z,91.18
2023-05-16T00:13:59.000Z,91.18
2023-05-16T00:16:29.444Z,91.15
2023-05-16T00:18:58.100Z,91.14
2023-05-16T00:21:26.710Z,91.16
2023-05-16T00:23:54.916Z,91.15
2023-05-16T00:26:22.846Z,91.19
2023-05-16T00:28:50.918Z,91.18
2023-05-16T00:31:19.122Z,91.17
2023-05-16T00:33:47.221Z,91.17
2023-05-16T00:36:16.171Z,91.22
2023-05-16T00:38:44.406Z,91.21
2023-05-16T00:41:12.380Z,91.23
2023-05-16T00:43:41.674Z,91.25
2023-05-16T00:46:09.841Z,91.23
2023-05-16T00:48:38.057Z,91.23
2023-05-16T00:51:09.540Z,91.25
2023-05-16T00:53:37.935Z,91.22
2023-05-16T00:56:07.060Z,91.17
2023-05-16T00:58:36.781Z,91.15
2023-05-16T01:01:05.102Z,91.12
2023-05-16T01:03:33.380Z,91.07
2023-05-16T01:06:01.404Z,91.03
2023-05-16T01:08:29.431Z,91.01
2023-05-16T01:11:11.612Z,90.96
2023-05-16T01:13:45.860Z,90.91
2023-05-16T01:16:26.424Z,90.80
2023-05-16T01:19:03.903Z,90.65
2023-05-16T01:21:48.516Z,90.51
2023-05-16T01:24:41.518Z,90.46
2023-05-16T01:27:11.967Z,90.50
2023-05-16T01:29:40.582Z,90.54
2023-05-16T01:32:08.504Z,90.61
2023-05-16T01:34:36.525Z,90.66
2023-05-16T01:37:17.393Z,90.71
2023-05-16T01:39:56.862Z,90.74
2023-05-16T01:42:30.510Z,90.75
2023-05-16T01:45:13.408Z,90.74
2023-05-16T01:47:45.640Z,90.69
2023-05-16T01:50:19.400Z,90.57
2023-05-16T01:53:07.026Z,90.43
2023-05-16T01:55:39.470Z,90.23
2023-05-16T01:58:10.262Z,90.07
2023-05-16T02:00:38.423Z,89.95
2023-05-16T02:03:07.150Z,89.81
2023-05-16T02:05:35.764Z,89.71
2023-05-16T02:08:04.437Z,89.66
2023-05-16T02:10:33.049Z,89.62
2023-05-16T02:13:01.033Z,89.63
2023-05-16T02:15:30.302Z,89.62
2023-05-16T02:17:58.816Z,89.59
2023-05-16T02:20:27.007Z,89.56
2023-05-16T02:22:56.079Z,89.58
2023-05-16T02:25:25.576Z,89.60
2023-05-16T02:27:54.141Z,89.59
2023-05-16T02:30:22.186Z,89.61
2023-05-16T02:32:50.198Z,89.61
2023-05-16T02:35:18.706Z,89.63
2023-05-16T02:37:47.174Z,89.67
2023-05-16T02:40:15.926Z,89.64
2023-05-16T02:42:43.931Z,89.67
2023-05-16T02:45:12.572Z,89.81
2023-05-16T02:47:41.577Z,89.89
2023-05-16T02:50:09.960Z,89.92
2023-05-16T02:52:37.966Z,90.00
2023-05-16T02:55:21.096Z,90.05
2023-05-16T02:57:55.111Z,90.10
2023-05-16T03:00:23.803Z,90.12
2023-05-16T03:02:51.845Z,90.17
2023-05-16T03:05:20.051Z,90.27
2023-05-16T03:07:48.014Z,90.29
2023-05-16T03:10:16.295Z,90.17
2023-05-16T03:12:44.266Z,89.89
2023-05-16T03:15:15.121Z,89.57
2023-05-16T03:17:43.155Z,89.26
2023-05-16T03:20:11.772Z,88.53
2023-05-16T03:22:40.679Z,87.86
2023-05-16T03:25:08.980Z,86.76
2023-05-16T03:27:39.972Z,86.27
2023-05-16T03:30:09.252Z,84.85
2023-05-16T03:32:38.306Z,83.51
2023-05-16T03:35:06.794Z,83.10
2023-05-16T03:37:35.322Z,82.82
2023-05-16T03:40:05.668Z,82.94
2023-05-16T03:42:33.617Z,82.92
2023-05-16T03:45:02.919Z,82.80
2023-05-16T03:47:32.187Z,82.56
2023-05-16T03:50:00.358Z,82.44
2023-05-16T03:52:28.873Z,81.81
2023-05-16T03:54:57.200Z,81.83
2023-05-16T03:57:25.577Z,82.14
2023-05-16T03:59:54.741Z,82.10
2023-05-16T04:02:48.484Z,81.78
2023-05-16T04:05:31.413Z,81.60
2023-05-16T04:08:00.174Z,81.50
2023-05-16T04:10:28.398Z,81.39
2023-05-16T04:12:56.267Z,81.09
2023-05-16T04:15:24.360Z,80.61
2023-05-16T04:17:52.536Z,80.39
2023-05-16T04:20:20.551Z,80.07
2023-05-16T04:22:48.747Z,79.69
2023-05-16T04:25:17.361Z,79.53
2023-05-16T04:27:46.097Z,79.19
2023-05-16T04:34:40.025Z,74.55
2023-05-16T04:37:08.622Z,73.39
2023-05-16T04:39:36.994Z,71.36
2023-05-16T04:42:04.942Z,68.72
2023-05-16T04:44:32.716Z,70.85
2023-05-16T04:47:00.763Z,68.30
2023-05-16T04:49:28.987Z,65.25
2023-05-16T04:51:56.853Z,63.54
2023-05-16T04:54:24.782Z,61.28
2023-05-16T04:56:52.714Z,58.66
2023-05-16T04:59:21.282Z,57.06
2023-05-16T05:01:49.123Z,56.29
2023-05-16T05:04:17.915Z,55.22
2023-05-16T05:06:45.742Z,53.46
2023-05-16T05:09:13.970Z,50.91
2023-05-16T05:11:42.435Z,50.47
2023-05-16T05:14:10.452Z,51.36
2023-05-16T05:16:39.421Z,50.78
2023-05-16T05:19:09.005Z,51.01
2023-05-16T05:21:37.838Z,52.26
2023-05-16T05:24:05.981Z,52.30
2023-05-16T05:26:33.953Z,53.97
2023-05-16T05:29:05.681Z,53.77
2023-05-16T05:31:35.309Z,54.06
2023-05-16T05:34:04.404Z,54.53
2023-05-16T05:36:32.364Z,55.33
2023-05-16T05:39:00.366Z,54.92
2023-05-16T05:41:28.514Z,54.49
2023-05-16T05:43:56.397Z,54.88
2023-05-16T05:46:24.768Z,55.01
2023-05-16T05:48:52.854Z,54.97
2023-05-16T05:51:21.116Z,54.58
2023-05-16T05:53:49.146Z,54.46
2023-05-16T05:56:16.965Z,54.38
2023-05-16T05:58:45.473Z,54.27
2023-05-16T06:01:13.479Z,54.68
2023-05-16T06:03:42.958Z,55.28
2023-05-16T06:06:11.081Z,56.23
2023-05-16T06:08:38.941Z,57.49
2023-05-16T06:11:07.011Z,58.69
2023-05-16T06:13:35.053Z,60.13
2023-05-16T06:16:02.974Z,60.11
2023-05-16T06:18:31.728Z,60.80
2023-05-16T06:20:59.764Z,61.27
2023-05-16T06:23:29.930Z,62.39
2023-05-16T06:25:58.845Z,64.35
2023-05-16T06:28:26.811Z,65.08
2023-05-16T06:30:55.091Z,66.42
2023-05-16T06:33:23.110Z,66.36
2023-05-16T06:35:52.695Z,66.59
2023-05-16T06:38:20.867Z,66.76
2023-05-16T06:40:49.347Z,67.74
2023-05-16T06:43:17.926Z,67.98
2023-05-16T06:45:46.813Z,68.15
2023-05-16T06:48:15.815Z,68.28
2023-05-16T06:50:47.520Z,68.99
2023-05-16T06:53:16.250Z,68.35
2023-05-16T06:55:45.011Z,68.28
2023-05-16T06:58:13.318Z,68.35
2023-05-16T07:00:42.046Z,68.70
2023-05-16T07:03:10.135Z,69.92
2023-05-16T07:05:38.207Z,70.37
2023-05-16T07:08:07.913Z,71.40
2023-05-16T07:10:37.506Z,71.61
2023-05-16T07:13:06.436Z,71.14
2023-05-16T07:15:34.585Z,70.03
2023-05-16T07:18:02.727Z,68.71
2023-05-16T07:20:30.999Z,68.86
2023-05-16T07:23:00.074Z,69.11
2023-05-16T07:25:28.339Z,69.43
2023-05-16T07:27:56.554Z,69.78
2023-05-16T07:30:24.709Z,70.45
2023-05-16T07:32:52.733Z,70.39
2023-05-16T07:35:20.774Z,70.11
2023-05-16T07:37:50.649Z,69.21
2023-05-16T07:40:21.306Z,68.72
2023-05-16T07:42:49.234Z,69.33
2023-05-16T07:45:18.099Z,69.62
2023-05-16T07:47:46.501Z,69.67
2023-05-16T07:50:14.917Z,69.37
2023-05-16T07:52:43.083Z,68.36
2023-05-16T07:55:11.334Z,67.19
2023-05-16T07:57:39.930Z,66.17
2023-05-16T08:00:09.548Z,64.28
2023-05-16T08:02:41.181Z,62.44
2023-05-16T08:05:10.248Z,60.38
2023-05-16T08:07:38.274Z,59.24
2023-05-16T08:10:06.864Z,58.97
2023-05-16T08:12:35.232Z,58.23
2023-05-16T08:15:04.364Z,57.51
2023-05-16T08:17:32.489Z,57.26
2023-05-16T08:20:01.921Z,57.69
2023-05-16T08:22:29.930Z,58.87
2023-05-16T08:24:58.373Z,59.96
2023-05-16T08:27:27.667Z,60.64
2023-05-16T08:29:56.602Z,60.99
2023-05-16T08:32:24.627Z,61.81
2023-05-16T08:34:52.630Z,62.55
2023-05-16T08:37:20.993Z,63.01
2023-05-16T08:39:49.195Z,63.34
2023-05-16T08:42:17.476Z,63.67
2023-05-16T08:44:45.676Z,63.94
2023-05-16T08:47:22.111Z,64.30
2023-05-16T08:49:52.508Z,63.27
2023-05-16T08:52:24.685Z,62.23
2023-05-16T08:55:09.192Z,63.17
2023-05-16T08:57:39.365Z,64.00
2023-05-16T09:00:12.437Z,64.85
2023-05-16T09:02:42.679Z,65.08
2023-05-16T09:05:16.152Z,64.05
2023-05-16T09:07:45.647Z,64.20
2023-05-16T09:10:13.915Z,64.37
2023-05-16T09:12:43.074Z,64.21
2023-05-16T09:15:12.095Z,65.33
2023-05-16T09:17:44.891Z,66.10
2023-05-16T09:20:18.370Z,64.40
2023-05-16T09:22:57.909Z,63.31
2023-05-16T09:25:31.323Z,63.07
2023-05-16T09:28:02.716Z,62.86
2023-05-16T09:30:34.421Z,63.42
2023-05-16T09:33:03.235Z,63.76
2023-05-16T09:38:02.940Z,63.58
2023-05-16T09:40:31.156Z,63.48
2023-05-16T09:43:07.065Z,64.66
2023-05-16T09:45:36.768Z,64.66
2023-05-16T09:48:07.091Z,62.50
2023-05-16T09:50:37.006Z,62.08
2023-05-16T09:53:06.218Z,61.18
2023-05-16T09:55:36.445Z,61.12
2023-05-16T09:58:04.558Z,61.76
2023-05-16T10:00:34.148Z,63.33
2023-05-16T10:03:06.324Z,63.17
2023-05-16T10:05:35.712Z,61.89
2023-05-16T10:08:04.692Z,62.05
2023-05-16T10:10:36.487Z,61.71
2023-05-16T10:13:05.906Z,59.50
2023-05-16T10:15:37.730Z,60.61
2023-05-16T10:18:13.184Z,60.23
2023-05-16T10:20:43.215Z,59.59
2023-05-16T10:23:18.432Z,60.20
2023-05-16T10:25:49.225Z,60.21
2023-05-16T10:28:17.619Z,60.30
2023-05-16T10:30:46.891Z,60.33
2023-05-16T10:33:17.802Z,61.05
2023-05-16T10:35:46.764Z,61.82
2023-05-16T10:38:19.635Z,62.10
2023-05-16T10:40:48.925Z,62.07
2023-05-16T10:43:28.592Z,61.87
2023-05-16T10:45:58.755Z,62.10
2023-05-16T10:48:39.052Z,62.64
2023-05-16T10:51:22.209Z,62.98
2023-05-16T10:53:54.795Z,62.75
2023-05-16T10:56:24.301Z,61.08
2023-05-16T10:58:54.575Z,61.51
2023-05-16T11:04:53.249Z,61.17
2023-05-16T11:07:23.834Z,60.67
2023-05-16T11:10:18.580Z,60.79
2023-05-16T11:12:50.042Z,60.50
2023-05-16T11:15:21.008Z,60.20
2023-05-16T11:17:49.617Z,59.17
2023-05-16T11:20:37.556Z,57.84
2023-05-16T11:23:17.951Z,57.85
2023-05-16T11:25:47.208Z,58.26
2023-05-16T11:28:15.575Z,58.56
2023-05-16T11:30:52.707Z,58.26
2023-05-16T11:33:21.318Z,58.96
2023-05-16T11:38:43.596Z,59.84
2023-05-16T11:41:12.375Z,60.03
2023-05-16T11:43:46.424Z,57.99
2023-05-16T11:46:18.736Z,58.73
2023-05-16T11:48:47.526Z,58.18
2023-05-16T11:51:19.393Z,58.36
2023-05-16T11:53:50.071Z,58.81
2023-05-16T11:56:18.895Z,58.65
2023-05-16T11:58:47.710Z,58.95
2023-05-16T12:01:16.392Z,58.09
2023-05-16T12:03:44.674Z,57.61
2023-05-16T12:06:12.844Z,58.33
2023-05-16T12:08:49.512Z,57.68
2023-05-16T12:11:17.578Z,57.89
2023-05-16T12:13:45.736Z,57.18
2023-05-16T12:16:14.191Z,57.60
2023-05-16T12:18:43.633Z,57.78
2023-05-16T12:21:12.641Z,58.10
2023-05-16T12:23:42.532Z,57.41
2023-05-16T12:26:10.457Z,55.86
2023-05-16T12:28:39.561Z,56.22
2023-05-16T12:31:23.094Z,54.90
2023-05-16T12:33:59.139Z,55.70
2023-05-16T12:36:31.702Z,55.35
2023-05-16T12:39:07.273Z,54.63
2023-05-16T12:41:41.480Z,55.40
2023-05-16T12:44:19.928Z,55.85
2023-05-16T12:46:50.209Z,56.02
2023-05-16T12:49:24.085Z,56.59
2023-05-16T12:51:53.162Z,57.12
2023-05-16T12:54:23.125Z,57.06
2023-05-16T12:56:51.499Z,58.02
2023-05-16T12:59:20.364Z,58.91
2023-05-16T13:01:49.017Z,58.39
2023-05-16T13:04:19.977Z,58.31
2023-05-16T13:06:59.073Z,58.22
2023-05-16T13:09:31.973Z,57.52
2023-05-16T13:12:00.934Z,57.73
2023-05-16T13:14:29.013Z,56.97
2023-05-16T13:16:57.135Z,58.23
2023-05-16T13:19:25.244Z,57.99
2023-05-16T13:21:53.568Z,57.81
2023-05-16T13:24:22.394Z,57.09
2023-05-16T13:26:50.270Z,57.65
2023-05-16T13:29:18.550Z,57.93
2023-05-16T13:31:46.696Z,58.84
2023-05-16T13:34:14.906Z,59.32
2023-05-16T13:36:53.995Z,59.30
2023-05-16T13:39:41.341Z,59.07
2023-05-16T13:42:27.769Z,58.51
2023-05-16T13:44:56.315Z,58.20
2023-05-16T13:47:24.426Z,58.23
2023-05-16T13:49:56.134Z,59.02
2023-05-16T13:52:24.152Z,59.43
2023-05-16T13:54:52.346Z,59.73
2023-05-16T13:57:23.034Z,59.39
2023-05-16T14:02:22.524Z,59.45
2023-05-16T14:04:50.533Z,58.47
2023-05-16T14:07:19.598Z,58.58
2023-05-16T14:09:47.872Z,57.27
2023-05-16T14:12:16.071Z,56.10
2023-05-16T14:14:44.281Z,57.02
2023-05-16T14:17:12.391Z,57.06
2023-05-16T14:19:40.884Z,57.75
2023-05-16T14:22:09.044Z,57.23
2023-05-16T14:24:37.115Z,57.01
2023-05-16T14:27:05.386Z,57.29
2023-05-16T14:29:33.372Z,57.66
2023-05-16T14:32:01.693Z,57.38
2023-05-16T14:34:30.325Z,55.94
2023-05-16T14:36:58.417Z,54.57
2023-05-16T14:39:28.155Z,54.28
2023-05-16T14:42:01.387Z,53.94
2023-05-16T14:44:35.147Z,52.67
2023-05-16T14:47:04.549Z,54.30
2023-05-16T14:49:32.751Z,56.18
2023-05-16T14:52:01.019Z,56.03
2023-05-16T14:54:30.177Z,55.90
2023-05-16T14:57:16.487Z,55.78
2023-05-16T14:59:44.616Z,56.98
2023-05-16T15:02:12.766Z,56.51
2023-05-16T15:04:40.950Z,54.68
2023-05-16T15:07:09.003Z,56.48
2023-05-16T15:09:37.070Z,56.37
2023-05-16T15:12:05.863Z,57.06
2023-05-16T15:14:34.918Z,56.02
2023-05-16T15:17:06.041Z,57.56
2023-05-16T15:19:36.315Z,57.29
2023-05-16T15:22:07.849Z,57.24
2023-05-16T15:24:36.457Z,57.20
2023-05-16T15:27:05.250Z,55.75
2023-05-16T15:29:34.858Z,55.85
2023-05-16T15:32:06.857Z,55.47
2023-05-16T15:34:35.681Z,55.75
2023-05-16T15:37:04.006Z,56.49
2023-05-16T15:39:32.326Z,56.87
2023-05-16T15:42:10.751Z,57.73
2023-05-16T15:44:39.787Z,57.44
2023-05-16T15:47:08.230Z,57.89
2023-05-16T15:49:36.747Z,57.93
2023-05-16T15:52:05.344Z,58.14
2023-05-16T15:54:34.597Z,57.31
2023-05-16T15:57:03.239Z,56.77
2023-05-16T15:59:31.464Z,55.80
2023-05-16T16:01:59.465Z,55.66
2023-05-16T16:04:27.508Z,55.94
2023-05-16T16:06:55.635Z,56.39
2023-05-16T16:09:25.355Z,56.04
2023-05-16T16:11:56.418Z,56.75
2023-05-16T16:14:24.739Z,56.72
2023-05-16T16:16:52.768Z,56.82
2023-05-16T16:19:21.736Z,57.05
2023-05-16T16:21:50.535Z,56.77
2023-05-16T16:24:20.230Z,56.73
2023-05-16T16:26:48.507Z,56.96
2023-05-16T16:29:16.805Z,57.12
2023-05-16T16:31:45.441Z,56.83
2023-05-16T16:34:13.447Z,57.35
2023-05-16T16:36:42.314Z,57.85
2023-05-16T16:39:10.563Z,57.86
2023-05-16T16:41:38.855Z,58.34
2023-05-16T16:44:06.930Z,57.89
2023-05-16T16:46:35.136Z,58.33
2023-05-16T16:49:03.767Z,58.26
2023-05-16T16:51:34.949Z,58.69
2023-05-16T16:54:03.072Z,58.98
2023-05-16T16:56:31.685Z,59.17
2023-05-16T16:58:59.789Z,59.57
2023-05-16T17:01:29.847Z,59.51
2023-05-16T17:03:58.835Z,59.82
2023-05-16T17:06:28.709Z,59.56
2023-05-16T17:08:57.227Z,59.18
2023-05-16T17:11:25.526Z,59.79
2023-05-16T17:13:59.252Z,60.55
2023-05-16T17:16:30.102Z,60.02
2023-05-16T17:18:58.386Z,60.17
2023-05-16T17:21:28.214Z,60.33
2023-05-16T17:23:58.263Z,60.65
2023-05-16T17:26:29.180Z,60.78
2023-05-16T17:28:58.745Z,61.05
2023-05-16T17:31:28.174Z,60.97
2023-05-16T17:33:57.156Z,61.24
2023-05-16T17:36:25.259Z,61.29
2023-05-16T17:38:53.381Z,61.11
2023-05-16T17:41:22.363Z,61.20
2023-05-16T17:43:51.041Z,61.66
2023-05-16T17:46:19.092Z,61.92
2023-05-16T17:48:47.778Z,62.31
2023-05-16T17:51:17.387Z,62.77
2023-05-16T17:53:45.975Z,65.05
2023-05-16T17:56:14.187Z,65.23
2023-05-16T17:58:42.592Z,66.94
2023-05-16T18:01:11.051Z,67.92
2023-05-16T18:03:41.498Z,69.08
2023-05-16T18:06:11.551Z,69.36
2023-05-16T18:08:39.870Z,69.43
2023-05-16T18:11:08.468Z,69.99
2023-05-16T18:13:36.778Z,70.44
2023-05-16T18:16:05.115Z,70.62
2023-05-16T18:18:33.418Z,70.31
2023-05-16T18:21:01.640Z,70.34
2023-05-16T18:23:29.985Z,70.80
2023-05-16T18:25:58.267Z,71.22
2023-05-16T18:28:26.367Z,70.05
2023-05-16T18:30:54.455Z,70.36
2023-05-16T18:33:22.733Z,70.84
2023-05-16T18:35:50.905Z,71.17
2023-05-16T18:38:31.332Z,71.64
2023-05-16T18:41:01.288Z,71.62
2023-05-16T18:43:30.776Z,72.00
2023-05-16T18:45:58.900Z,73.18
2023-05-16T18:48:27.007Z,74.06
2023-05-16T18:50:55.213Z,74.58
2023-05-16T18:53:23.652Z,75.07
2023-05-16T18:55:51.828Z,75.63
2023-05-16T18:58:19.887Z,75.97
2023-05-16T19:04:36.505Z,76.59
2023-05-16T19:07:06.038Z,76.99
2023-05-16T19:09:36.908Z,77.19
2023-05-16T19:12:05.938Z,77.42
2023-05-16T19:14:34.049Z,77.65
2023-05-16T19:17:02.221Z,77.95
2023-05-16T19:19:31.233Z,78.18
2023-05-16T19:21:59.448Z,78.33
2023-05-16T19:24:27.955Z,78.54
2023-05-16T19:26:56.034Z,78.83
2023-05-16T19:29:24.034Z,79.03
2023-05-16T19:31:52.576Z,79.18
2023-05-16T19:34:21.493Z,79.47
2023-05-16T19:36:49.581Z,79.65
2023-05-16T19:39:19.015Z,79.87
2023-05-16T19:41:51.680Z,80.03
2023-05-16T19:44:20.602Z,80.05
2023-05-16T19:46:48.758Z,80.31
2023-05-16T19:49:20.221Z,80.54
2023-05-16T19:51:49.270Z,80.67
2023-05-16T19:54:17.645Z,80.90
2023-05-16T19:56:46.273Z,81.09
2023-05-16T19:59:14.554Z,81.27
2023-05-16T20:01:44.054Z,81.37
2023-05-16T20:04:13.328Z,81.44
2023-05-16T20:06:41.567Z,81.50
2023-05-16T20:09:11.265Z,81.42
2023-05-16T20:11:39.578Z,81.47
2023-05-16T20:14:07.671Z,81.62
2023-05-16T20:16:35.766Z,81.82
2023-05-16T20:19:04.348Z,82.14
2023-05-16T20:21:32.521Z,82.49
2023-05-16T20:24:00.631Z,82.59
2023-05-16T20:26:28.626Z,82.56
2023-05-16T20:28:56.679Z,82.66
2023-05-16T20:31:24.920Z,82.91
2023-05-16T20:33:53.779Z,83.17
2023-05-16T20:36:21.992Z,83.15
2023-05-16T20:38:50.863Z,83.22
2023-05-16T20:41:19.255Z,83.35
2023-05-16T20:43:47.405Z,83.54
2023-05-16T20:46:15.665Z,83.88
2023-05-16T20:48:44.160Z,84.14
2023-05-16T20:51:12.187Z,84.38
2023-05-16T20:53:40.269Z,84.44
2023-05-16T20:56:08.387Z,84.40
2023-05-16T20:58:41.149Z,84.41
2023-05-16T21:01:09.497Z,84.43
2023-05-16T21:03:37.697Z,84.44
2023-05-16T21:06:06.460Z,84.51
2023-05-16T21:08:34.743Z,84.54
2023-05-16T21:11:03.739Z,84.64
2023-05-16T21:13:31.770Z,84.70
2023-05-16T21:15:59.926Z,84.61
2023-05-16T21:18:28.039Z,84.72
2023-05-16T21:20:56.278Z,84.81
2023-05-16T21:23:24.382Z,84.91
2023-05-16T21:25:52.409Z,84.96
2023-05-16T21:28:20.484Z,85.06
2023-05-16T21:30:48.797Z,85.18
2023-05-16T21:33:18.204Z,85.29
2023-05-16T21:35:47.173Z,85.41
2023-05-16T21:38:16.065Z,85.55
2023-05-16T21:40:44.316Z,85.65
2023-05-16T21:43:12.583Z,85.69
2023-05-16T21:45:40.718Z,85.69
2023-05-16T21:48:09.316Z,85.55
2023-05-16T21:50:37.935Z,85.60
2023-05-16T21:53:06.269Z,85.64
2023-05-16T21:55:35.098Z,85.65
2023-05-16T21:58:03.766Z,85.64
2023-05-16T22:00:31.762Z,85.75
2023-05-16T22:02:59.818Z,85.79
2023-05-16T22:05:28.585Z,85.82
2023-05-16T22:07:57.576Z,85.84
2023-05-16T22:10:25.770Z,85.85
2023-05-16T22:12:54.001Z,85.78
2023-05-16T22:15:22.064Z,85.73
2023-05-16T22:17:51.225Z,85.73
2023-05-16T22:20:21.589Z,85.78
2023-05-16T22:22:50.810Z,85.91
2023-05-16T22:25:22.045Z,86.13
2023-05-16T22:27:59.263Z,86.26
2023-05-16T22:30:27.659Z,86.40
2023-05-16T22:32:57.135Z,86.50
2023-05-16T22:35:27.376Z,86.61
2023-05-16T22:37:55.480Z,86.74
2023-05-16T22:40:23.472Z,86.81
2023-05-16T22:42:51.528Z,86.91
2023-05-16T22:45:19.773Z,86.97
2023-05-16T22:47:47.781Z,87.00
2023-05-16T22:50:15.947Z,86.97
2023-05-16T22:52:44.021Z,87.08
2023-05-16T22:55:12.080Z,87.24
2023-05-16T22:57:40.195Z,87.34
2023-05-16T23:00:09.162Z,87.36
2023-05-16T23:02:37.248Z,87.40
2023-05-16T23:05:05.808Z,87.54
2023-05-16T23:07:33.940Z,87.64
2023-05-16T23:10:04.023Z,87.78
2023-05-16T23:12:32.014Z,87.93
2023-05-16T23:15:00.073Z,88.02
2023-05-16T23:17:28.677Z,88.03
2023-05-16T23:19:57.121Z,88.11
2023-05-16T23:22:25.210Z,88.18
2023-05-16T23:24:53.301Z,88.21
2023-05-16T23:27:22.277Z,88.25
2023-05-16T23:29:53.310Z,88.34
2023-05-16T23:32:21.386Z,88.42
2023-05-16T23:34:49.508Z,88.48
2023-05-16T23:37:18.273Z,88.51
2023-05-16T23:39:46.269Z,88.54
2023-05-16T23:42:14.260Z,88.60
2023-05-16T23:44:42.305Z,88.64
2023-05-16T23:47:10.310Z,88.68
2023-05-16T23:49:38.284Z,88.73
2023-05-16T23:52:06.557Z,88.79
2023-05-16T23:54:34.724Z,88.89
2023-05-16T23:57:02.645Z,88.95
2023-05-16T23:59:31.025Z,88.98
